Airport View

Enter AWOS ICAO identifier for current METAR.

ex. KFNL

KLAW 310353Z AUTO 06003KT 10SM CLR 21/13 A3013 RMK AO2 SLP194 T02110133

31 May 2020 04:45

Phone: 580-581-1351

Other Area AWOS: KFSI - KDUC - KFDR - KSPS

TAF KLAW 302320Z 3100/3124 10005KT P6SM SKC FM311500 15012KT P6SM FEW250